createdAt,value
2018-08-22T00:02:05.720Z,3.00
2018-08-22T00:04:34.637Z,2.50
2018-08-22T00:07:03.531Z,2.97
2018-08-22T00:09:32.291Z,2.30
2018-08-22T00:12:00.826Z,2.60
2018-08-22T00:14:29.240Z,3.03
2018-08-22T00:16:57.692Z,2.93
2018-08-22T00:19:26.137Z,2.77
2018-08-22T00:21:54.744Z,2.60
2018-08-22T00:24:23.324Z,3.00
2018-08-22T00:26:51.735Z,3.40
2018-08-22T00:29:20.240Z,2.80
2018-08-22T00:31:48.576Z,3.00
2018-08-22T00:34:16.987Z,2.93
2018-08-22T00:36:45.505Z,2.60
2018-08-22T00:39:13.897Z,3.10
2018-08-22T00:41:42.370Z,2.60
2018-08-22T00:44:10.823Z,2.93
2018-08-22T00:46:39.359Z,2.83
2018-08-22T00:49:07.767Z,2.80
2018-08-22T00:51:36.250Z,3.17
2018-08-22T00:54:04.677Z,2.67
2018-08-22T00:56:33.133Z,3.73
2018-08-22T00:59:01.544Z,3.53
2018-08-22T01:01:30.008Z,2.80
2018-08-22T01:03:58.476Z,3.17
2018-08-22T01:06:27.085Z,3.20
2018-08-22T01:08:55.469Z,3.30
2018-08-22T01:11:24.244Z,3.37
2018-08-22T01:13:52.654Z,3.27
2018-08-22T01:16:21.308Z,3.07
2018-08-22T01:18:49.752Z,3.17
2018-08-22T01:21:18.174Z,3.00
2018-08-22T01:23:46.625Z,3.17
2018-08-22T01:26:15.115Z,3.17
2018-08-22T01:28:43.517Z,3.10
2018-08-22T01:31:11.916Z,3.67
2018-08-22T01:33:40.498Z,3.30
2018-08-22T01:36:08.913Z,3.30
2018-08-22T01:38:37.541Z,3.13
2018-08-22T01:41:05.997Z,2.70
2018-08-22T01:43:34.473Z,3.30
2018-08-22T01:46:02.944Z,3.03
2018-08-22T01:48:31.388Z,3.63
2018-08-22T01:50:59.795Z,2.70
2018-08-22T01:53:28.211Z,2.97
2018-08-22T01:55:56.873Z,3.20
2018-08-22T01:58:25.460Z,3.00
2018-08-22T02:00:53.904Z,3.10
2018-08-22T02:03:22.402Z,2.97
2018-08-22T02:05:50.856Z,3.10
2018-08-22T02:08:19.316Z,3.30
2018-08-22T02:10:47.746Z,3.20
2018-08-22T02:13:16.177Z,3.47
2018-08-22T02:15:44.629Z,2.97
2018-08-22T02:18:13.172Z,3.13
2018-08-22T02:20:41.620Z,3.10
2018-08-22T02:23:10.037Z,3.07
2018-08-22T02:25:38.473Z,3.60
2018-08-22T02:28:06.901Z,3.30
2018-08-22T02:30:35.313Z,3.17
2018-08-22T02:33:03.724Z,3.50
2018-08-22T02:35:32.158Z,2.77
2018-08-22T02:38:00.581Z,3.47
2018-08-22T02:40:29.489Z,3.10
2018-08-22T02:42:58.215Z,3.30
2018-08-22T02:45:26.593Z,3.20
2018-08-22T02:47:55.014Z,3.07
2018-08-22T02:50:23.441Z,3.10
2018-08-22T02:52:51.912Z,3.07
2018-08-22T02:55:20.308Z,3.63
2018-08-22T02:57:48.767Z,3.27
2018-08-22T03:00:17.237Z,3.77
2018-08-22T03:02:45.704Z,3.17
2018-08-22T03:05:14.111Z,3.23
2018-08-22T03:07:42.556Z,3.30
2018-08-22T03:10:10.966Z,3.20
2018-08-22T03:12:39.447Z,3.40
2018-08-22T03:15:07.850Z,3.13
2018-08-22T03:17:36.302Z,3.77
2018-08-22T03:20:04.761Z,3.50
2018-08-22T03:22:33.188Z,3.80
2018-08-22T03:25:01.716Z,3.53
2018-08-22T03:27:30.155Z,3.93
2018-08-22T03:29:58.602Z,3.57
2018-08-22T03:32:27.012Z,3.60
2018-08-22T03:34:55.462Z,4.43
2018-08-22T03:37:24.492Z,3.33
2018-08-22T03:39:53.089Z,3.80
2018-08-22T03:42:21.533Z,3.40
2018-08-22T03:44:50.199Z,3.30
2018-08-22T03:47:18.619Z,3.80
2018-08-22T03:49:47.022Z,3.33
2018-08-22T03:52:15.667Z,3.77
2018-08-22T03:54:44.103Z,3.20
2018-08-22T03:57:12.517Z,3.87
2018-08-22T03:59:40.989Z,3.53
2018-08-22T04:02:09.421Z,3.70
2018-08-22T04:04:37.880Z,3.57
2018-08-22T04:07:06.306Z,3.60
2018-08-22T04:09:34.736Z,3.73
2018-08-22T04:12:03.148Z,3.63
2018-08-22T04:14:31.581Z,3.87
2018-08-22T04:17:00.032Z,3.80
2018-08-22T04:19:28.432Z,4.57
2018-08-22T04:21:56.877Z,3.60
2018-08-22T04:24:25.282Z,3.60
2018-08-22T04:26:53.796Z,4.17
2018-08-22T04:29:22.286Z,4.30
2018-08-22T04:31:50.717Z,4.40
2018-08-22T04:34:19.168Z,4.27
2018-08-22T04:36:48.163Z,4.30
2018-08-22T04:39:16.620Z,5.07
2018-08-22T04:41:45.065Z,4.43
2018-08-22T04:44:13.491Z,3.97
2018-08-22T04:46:41.984Z,3.80
2018-08-22T04:49:10.494Z,4.33
2018-08-22T04:51:38.912Z,4.30
2018-08-22T04:54:07.352Z,3.73
2018-08-22T04:56:35.910Z,5.30
2018-08-22T04:59:04.345Z,5.33
2018-08-22T05:01:32.781Z,4.33
2018-08-22T05:04:01.270Z,5.27
2018-08-22T05:06:29.717Z,4.20
2018-08-22T05:08:58.171Z,4.00
2018-08-22T05:11:26.587Z,4.93
2018-08-22T05:13:55.033Z,4.87
2018-08-22T05:16:23.461Z,4.90
2018-08-22T05:18:51.904Z,4.47
2018-08-22T05:21:20.382Z,4.50
2018-08-22T05:23:48.872Z,4.93
2018-08-22T05:26:17.391Z,3.87
2018-08-22T05:28:45.942Z,4.87
2018-08-22T05:31:14.400Z,4.43
2018-08-22T05:33:42.834Z,5.87
2018-08-22T05:36:11.381Z,6.03
2018-08-22T05:38:39.915Z,5.90
2018-08-22T05:41:08.632Z,5.00
2018-08-22T05:43:37.168Z,5.63
2018-08-22T05:46:05.642Z,4.23
2018-08-22T05:48:34.144Z,4.00
2018-08-22T05:51:02.616Z,4.73
2018-08-22T05:53:31.064Z,5.17
2018-08-22T05:55:59.519Z,4.50
2018-08-22T05:58:28.005Z,4.83
2018-08-22T06:00:56.430Z,4.27
2018-08-22T06:03:24.906Z,4.37
2018-08-22T06:05:53.349Z,4.03
2018-08-22T06:08:21.776Z,3.60
2018-08-22T06:10:50.281Z,3.77
2018-08-22T06:13:18.689Z,3.70
2018-08-22T06:15:47.172Z,3.40
2018-08-22T06:18:16.188Z,3.53
2018-08-22T06:20:44.855Z,3.40
2018-08-22T06:23:13.318Z,3.47
2018-08-22T06:25:41.766Z,3.80
2018-08-22T06:28:10.224Z,3.80
2018-08-22T06:30:38.661Z,4.33
2018-08-22T06:33:07.306Z,3.90
2018-08-22T06:35:35.760Z,3.93
2018-08-22T06:38:04.252Z,4.83
2018-08-22T06:40:32.776Z,4.57
2018-08-22T06:43:01.215Z,4.37
2018-08-22T06:45:29.813Z,4.40
2018-08-22T06:47:58.823Z,4.05
2018-08-22T06:50:27.396Z,3.75
2018-08-22T06:52:55.879Z,4.45
2018-08-22T06:55:24.674Z,5.05
2018-08-22T06:57:53.629Z,3.95
2018-08-22T07:00:22.186Z,3.92
2018-08-22T07:02:50.644Z,4.80
2018-08-22T07:05:19.061Z,3.37
2018-08-22T07:07:47.542Z,3.58
2018-08-22T07:10:16.134Z,3.77
2018-08-22T07:12:44.621Z,3.72
2018-08-22T07:15:13.365Z,3.30
2018-08-22T07:17:41.829Z,3.87
2018-08-22T07:20:10.744Z,3.22
2018-08-22T07:22:39.329Z,3.20
2018-08-22T07:25:08.052Z,3.12
2018-08-22T07:27:37.401Z,3.80
2018-08-22T07:30:06.305Z,3.62
2018-08-22T07:32:34.916Z,3.67
2018-08-22T07:35:03.749Z,4.12
2018-08-22T07:37:32.375Z,3.98
2018-08-22T07:40:01.067Z,4.10
2018-08-22T07:42:30.103Z,4.75
2018-08-22T07:44:58.737Z,3.67
2018-08-22T07:47:27.486Z,3.52
2018-08-22T07:49:56.273Z,3.15
2018-08-22T07:52:25.138Z,3.37
2018-08-22T07:54:53.977Z,3.35
2018-08-22T07:57:22.976Z,3.52
2018-08-22T07:59:52.306Z,3.52
2018-08-22T08:02:20.753Z,3.72
2018-08-22T08:04:49.179Z,3.33
2018-08-22T08:07:17.758Z,4.55
2018-08-22T08:09:46.178Z,12.65
2018-08-22T08:12:14.708Z,5.97
2018-08-22T08:14:44.736Z,3.95
2018-08-22T08:17:13.337Z,3.90
2018-08-22T08:19:42.103Z,4.35
2018-08-22T08:22:10.558Z,4.72
2018-08-22T08:24:38.950Z,4.03
2018-08-22T08:27:07.463Z,3.98
2018-08-22T08:29:35.983Z,4.25
2018-08-22T08:32:04.418Z,4.10
2018-08-22T08:34:32.875Z,4.20
2018-08-22T08:37:01.324Z,3.67
2018-08-22T08:39:29.752Z,4.30
2018-08-22T08:41:58.190Z,3.65
2018-08-22T08:44:26.588Z,4.35
2018-08-22T08:46:55.001Z,3.70
2018-08-22T08:49:23.461Z,3.77
2018-08-22T08:51:58.973Z,4.87
2018-08-22T08:54:27.541Z,4.20
2018-08-22T08:56:55.957Z,4.62
2018-08-22T08:59:24.402Z,4.37
2018-08-22T09:01:52.825Z,4.75
2018-08-22T09:04:22.716Z,4.00
2018-08-22T09:06:51.147Z,4.53
2018-08-22T09:09:19.721Z,4.50
2018-08-22T09:11:53.530Z,5.05
2018-08-22T09:14:22.029Z,5.00
2018-08-22T09:16:50.470Z,5.25
2018-08-22T09:19:18.909Z,4.50
2018-08-22T09:21:47.482Z,4.80
2018-08-22T09:24:16.000Z,3.92
2018-08-22T09:26:44.455Z,4.75
2018-08-22T09:29:12.988Z,4.40
2018-08-22T09:31:41.414Z,4.47
2018-08-22T09:34:09.873Z,6.00
2018-08-22T09:36:38.438Z,5.22
2018-08-22T09:39:10.021Z,4.78
2018-08-22T09:41:38.480Z,4.67
2018-08-22T09:44:07.570Z,4.47
2018-08-22T09:46:36.660Z,4.65
2018-08-22T09:49:05.217Z,6.12
2018-08-22T09:51:33.664Z,4.87
2018-08-22T09:54:02.109Z,4.65
2018-08-22T09:56:30.783Z,4.30
2018-08-22T09:58:59.460Z,5.30
2018-08-22T10:01:33.151Z,5.30
2018-08-22T10:04:02.301Z,4.90
2018-08-22T10:06:34.193Z,5.25
2018-08-22T10:09:04.645Z,5.90
2018-08-22T10:11:33.119Z,5.20
2018-08-22T10:14:01.534Z,5.05
2018-08-22T10:16:30.128Z,5.83
2018-08-22T10:18:58.684Z,5.62
2018-08-22T10:21:27.565Z,5.00
2018-08-22T10:23:56.170Z,5.65
2018-08-22T10:26:24.762Z,10.78
2018-08-22T10:28:53.959Z,6.97
2018-08-22T10:31:23.262Z,7.70
2018-08-22T10:33:51.892Z,7.35
2018-08-22T10:36:20.548Z,8.38
2018-08-22T10:38:54.181Z,8.15
2018-08-22T10:41:23.049Z,7.20
2018-08-22T10:43:51.725Z,7.60
2018-08-22T10:46:20.172Z,8.83
2018-08-22T10:48:48.950Z,9.88
2018-08-22T10:51:17.406Z,9.03
2018-08-22T10:53:45.846Z,10.20
2018-08-22T10:56:14.324Z,10.23
2018-08-22T10:58:43.075Z,9.78
2018-08-22T11:01:11.663Z,9.33
2018-08-22T11:03:40.211Z,10.28
2018-08-22T11:06:08.897Z,8.80
2018-08-22T11:08:37.486Z,10.58
2018-08-22T11:11:06.118Z,10.95
2018-08-22T11:13:41.351Z,13.50
2018-08-22T11:16:09.881Z,12.50
2018-08-22T11:18:38.441Z,12.10
2018-08-22T11:21:18.041Z,13.63
2018-08-22T11:23:57.861Z,12.93
2018-08-22T11:26:37.578Z,12.90
2018-08-22T11:29:17.393Z,17.67
2018-08-22T11:31:57.445Z,16.13
2018-08-22T11:34:37.454Z,11.93
2018-08-22T11:37:08.717Z,10.20
2018-08-22T11:39:37.485Z,10.63
2018-08-22T11:42:06.459Z,11.27
2018-08-22T11:44:35.304Z,11.77
2018-08-22T11:47:05.096Z,11.00
2018-08-22T11:49:33.968Z,14.03
2018-08-22T11:52:03.141Z,12.00
2018-08-22T11:54:32.376Z,12.77
2018-08-22T11:57:02.109Z,11.33
2018-08-22T11:59:31.312Z,9.10
2018-08-22T12:02:00.324Z,11.10
2018-08-22T12:04:29.077Z,10.73
2018-08-22T12:06:58.342Z,8.70
2018-08-22T12:09:27.711Z,9.27
2018-08-22T12:11:56.531Z,9.87
2018-08-22T12:14:25.700Z,9.13
2018-08-22T12:16:54.852Z,11.60
2018-08-22T12:19:24.015Z,11.47
2018-08-22T12:21:53.721Z,9.87
2018-08-22T12:24:23.508Z,10.37
2018-08-22T12:26:53.004Z,11.37
2018-08-22T12:29:22.507Z,10.77
2018-08-22T12:31:51.804Z,9.53
2018-08-22T12:34:21.287Z,9.40
2018-08-22T12:36:50.441Z,10.23
2018-08-22T12:39:19.474Z,9.10
2018-08-22T12:41:48.190Z,10.60
2018-08-22T12:44:16.987Z,10.60
2018-08-22T12:46:45.798Z,9.97
2018-08-22T12:49:14.635Z,9.47
2018-08-22T12:51:43.172Z,10.23
2018-08-22T12:54:12.079Z,10.20
2018-08-22T12:56:41.115Z,9.30
2018-08-22T12:59:09.869Z,11.47
2018-08-22T13:01:38.473Z,9.37
2018-08-22T13:04:07.493Z,10.03
2018-08-22T13:06:36.244Z,10.10
2018-08-22T13:09:07.210Z,11.33
2018-08-22T13:11:36.722Z,12.03
2018-08-22T13:14:05.529Z,10.23
2018-08-22T13:16:34.142Z,9.87
2018-08-22T13:19:02.726Z,9.27
2018-08-22T13:21:31.204Z,12.43
2018-08-22T13:23:59.770Z,9.97
2018-08-22T13:26:28.214Z,9.17
2018-08-22T13:28:57.238Z,9.30
2018-08-22T13:31:25.739Z,8.97
2018-08-22T13:33:54.292Z,9.07
2018-08-22T13:36:22.834Z,8.63
2018-08-22T13:38:51.471Z,8.50
2018-08-22T13:41:20.025Z,9.63
2018-08-22T13:43:48.685Z,9.07
2018-08-22T13:46:17.285Z,8.57
2018-08-22T13:48:46.236Z,7.40
2018-08-22T13:51:14.700Z,9.17
2018-08-22T13:53:43.500Z,7.63
2018-08-22T13:56:12.086Z,9.00
2018-08-22T13:58:40.659Z,8.17
2018-08-22T14:01:09.141Z,7.60
2018-08-22T14:03:37.722Z,7.77
2018-08-22T14:06:06.623Z,7.43
2018-08-22T14:08:35.233Z,6.70
2018-08-22T14:11:03.641Z,7.03
2018-08-22T14:13:32.425Z,6.17
2018-08-22T14:16:01.145Z,6.87
2018-08-22T14:18:29.921Z,8.53
2018-08-22T14:20:58.352Z,8.40
2018-08-22T14:23:26.901Z,7.30
2018-08-22T14:25:55.329Z,6.73
2018-08-22T14:28:23.881Z,7.67
2018-08-22T14:30:52.365Z,7.77
2018-08-22T14:33:20.835Z,9.43
2018-08-22T14:35:49.645Z,7.77
2018-08-22T14:38:18.252Z,6.53
2018-08-22T14:40:46.865Z,7.73
2018-08-22T14:43:15.345Z,7.70
2018-08-22T14:45:43.981Z,8.53
2018-08-22T14:48:12.683Z,8.63
2018-08-22T14:50:41.202Z,10.10
2018-08-22T14:53:09.658Z,10.73
2018-08-22T14:55:38.170Z,10.47
2018-08-22T14:58:06.731Z,9.27
2018-08-22T15:00:35.188Z,8.43
2018-08-22T15:03:03.891Z,7.87
2018-08-22T15:05:32.094Z,7.93
2018-08-22T15:08:00.513Z,10.60
2018-08-22T15:10:28.961Z,9.23
2018-08-22T15:12:57.470Z,9.73
2018-08-22T15:15:32.434Z,10.23
2018-08-22T15:18:00.864Z,7.93
2018-08-22T15:20:29.382Z,9.63
2018-08-22T15:22:57.914Z,11.27
2018-08-22T15:25:26.389Z,9.67
2018-08-22T15:27:54.869Z,13.30
2018-08-22T15:30:23.377Z,10.07
2018-08-22T15:32:51.921Z,12.80
2018-08-22T15:35:20.371Z,11.60
2018-08-22T15:37:48.845Z,13.67
2018-08-22T15:40:17.305Z,11.67
2018-08-22T15:42:45.767Z,10.17
2018-08-22T15:45:14.232Z,12.03
2018-08-22T15:47:42.798Z,11.93
2018-08-22T15:50:11.377Z,13.87
2018-08-22T15:52:40.717Z,12.03
2018-08-22T15:55:13.007Z,13.43
2018-08-22T15:57:55.068Z,13.17
2018-08-22T16:00:50.407Z,14.83
2018-08-22T16:03:19.057Z,15.77
2018-08-22T16:05:48.362Z,13.97
2018-08-22T16:08:17.552Z,13.27
2018-08-22T16:10:45.996Z,14.33
2018-08-22T16:13:20.021Z,11.80
2018-08-22T16:15:50.085Z,12.00
2018-08-22T16:18:18.769Z,11.57
2018-08-22T16:20:57.342Z,11.50
2018-08-22T16:23:27.301Z,12.97
2018-08-22T16:25:56.794Z,12.20
2018-08-22T16:28:25.955Z,12.30
2018-08-22T16:30:57.533Z,12.17
2018-08-22T16:33:24.878Z,12.27
2018-08-22T16:35:53.420Z,10.73
2018-08-22T16:38:21.961Z,11.57
2018-08-22T16:40:52.176Z,11.73
2018-08-22T16:43:37.242Z,12.30
2018-08-22T16:46:08.110Z,13.30
2018-08-22T16:48:36.851Z,15.07
2018-08-22T16:51:05.382Z,13.53
2018-08-22T16:53:34.442Z,12.97
2018-08-22T16:56:02.912Z,12.07
2018-08-22T16:58:31.354Z,13.73
2018-08-22T17:00:59.827Z,12.40
2018-08-22T17:03:28.371Z,13.67
2018-08-22T17:06:02.668Z,16.67
2018-08-22T17:08:31.134Z,13.17
2018-08-22T17:11:01.054Z,12.53
2018-08-22T17:13:40.590Z,12.60
2018-08-22T17:16:09.161Z,12.90
2018-08-22T17:18:37.775Z,11.93
2018-08-22T17:21:06.699Z,13.23
2018-08-22T17:23:35.334Z,12.47
2018-08-22T17:26:03.828Z,12.13
2018-08-22T17:28:37.341Z,12.47
2018-08-22T17:31:05.841Z,13.80
2018-08-22T17:33:52.138Z,11.93
2018-08-22T17:36:20.669Z,11.67
2018-08-22T17:38:50.684Z,11.57
2018-08-22T17:41:21.136Z,11.13
2018-08-22T17:44:06.384Z,10.10
2018-08-22T17:46:36.347Z,12.03
2018-08-22T17:49:04.806Z,11.63
2018-08-22T17:51:40.953Z,11.30
2018-08-22T17:54:09.638Z,11.63
2018-08-22T17:56:38.069Z,12.27
2018-08-22T17:59:06.794Z,11.87
2018-08-22T18:01:35.305Z,12.13
2018-08-22T18:04:03.825Z,12.83
2018-08-22T18:06:33.670Z,11.80
2018-08-22T18:09:02.950Z,11.03
2018-08-22T18:11:31.405Z,11.70
2018-08-22T18:13:59.936Z,11.47
2018-08-22T18:16:28.334Z,11.47
2018-08-22T18:18:56.792Z,10.70
2018-08-22T18:21:33.166Z,11.63
2018-08-22T18:24:01.913Z,11.77
2018-08-22T18:26:30.338Z,11.97
2018-08-22T18:28:58.802Z,11.90
2018-08-22T18:31:27.325Z,11.30
2018-08-22T18:34:02.189Z,11.03
2018-08-22T18:36:31.760Z,10.90
2018-08-22T18:39:08.901Z,10.93
2018-08-22T18:41:37.807Z,11.17
2018-08-22T18:44:06.542Z,11.70
2018-08-22T18:46:35.034Z,11.00
2018-08-22T18:49:04.261Z,10.63
2018-08-22T18:51:33.116Z,11.97
2018-08-22T18:54:02.314Z,12.57
2018-08-22T18:56:31.109Z,20.73
2018-08-22T18:59:35.371Z,12.87
2018-08-22T19:02:03.888Z,12.27
2018-08-22T19:04:32.518Z,10.90
2018-08-22T19:07:01.467Z,10.50
2018-08-22T19:09:30.008Z,10.67
2018-08-22T19:11:58.581Z,12.57
2018-08-22T19:14:38.612Z,10.20
2018-08-22T19:17:07.245Z,11.10
2018-08-22T19:19:40.128Z,11.80
2018-08-22T19:22:08.812Z,11.10
2018-08-22T19:24:37.396Z,12.07
2018-08-22T19:27:06.721Z,11.27
2018-08-22T19:29:35.728Z,11.17
2018-08-22T19:32:04.515Z,11.40
2018-08-22T19:34:33.263Z,11.30
2018-08-22T19:37:02.063Z,11.13
2018-08-22T19:39:30.816Z,11.23
2018-08-22T19:41:59.601Z,12.23
2018-08-22T19:44:28.322Z,13.10
2018-08-22T19:46:57.145Z,12.97
2018-08-22T19:49:25.660Z,13.20
2018-08-22T19:51:54.109Z,11.90
2018-08-22T19:54:22.751Z,12.43
2018-08-22T19:56:51.810Z,11.90
2018-08-22T19:59:20.709Z,12.10
2018-08-22T20:01:49.542Z,11.70
2018-08-22T20:04:18.274Z,11.80
2018-08-22T20:06:47.025Z,12.60
2018-08-22T20:09:15.586Z,12.87
2018-08-22T20:11:44.238Z,11.70
2018-08-22T20:14:13.152Z,12.80
2018-08-22T20:16:41.801Z,13.07
2018-08-22T20:19:10.519Z,14.17
2018-08-22T20:21:40.489Z,14.10
2018-08-22T20:24:10.600Z,16.10
2018-08-22T20:26:52.219Z,15.67
2018-08-22T20:29:20.737Z,16.37
2018-08-22T20:31:49.317Z,17.83
2018-08-22T20:34:17.891Z,18.50
2018-08-22T20:36:54.061Z,16.83
2018-08-22T20:39:22.678Z,18.50
2018-08-22T20:41:55.917Z,19.97
2018-08-22T20:44:24.621Z,21.23
2018-08-22T20:46:53.184Z,20.70
2018-08-22T20:49:22.045Z,20.37
2018-08-22T20:51:50.690Z,20.50
2018-08-22T20:54:21.697Z,21.03
2018-08-22T20:56:55.486Z,20.47
2018-08-22T20:59:24.229Z,20.93
2018-08-22T21:01:55.902Z,22.50
2018-08-22T21:04:24.752Z,21.53
2018-08-22T21:06:53.264Z,22.20
2018-08-22T21:09:21.773Z,22.00
2018-08-22T21:11:50.566Z,23.73
2018-08-22T21:14:19.308Z,22.57
2018-08-22T21:16:48.147Z,24.27
2018-08-22T21:19:16.789Z,22.93
2018-08-22T21:21:45.431Z,22.70
2018-08-22T21:24:14.090Z,24.53
2018-08-22T21:26:44.688Z,23.23
2018-08-22T21:29:13.418Z,22.47
2018-08-22T21:31:41.937Z,23.80
2018-08-22T21:34:16.043Z,22.60
2018-08-22T21:36:45.960Z,23.27
2018-08-22T21:39:20.483Z,25.30
2018-08-22T21:41:49.546Z,24.73
2018-08-22T21:44:21.659Z,24.03
2018-08-22T21:47:01.016Z,23.27
2018-08-22T21:49:30.073Z,23.43
2018-08-22T21:52:00.540Z,23.33
2018-08-22T21:54:29.505Z,25.00
2018-08-22T21:56:58.110Z,24.00
2018-08-22T21:59:26.828Z,24.63
2018-08-22T22:02:01.067Z,23.07
2018-08-22T22:04:33.379Z,22.57
2018-08-22T22:07:02.621Z,24.43
2018-08-22T22:09:31.159Z,23.97
2018-08-22T22:12:00.693Z,23.67
2018-08-22T22:14:32.039Z,23.27
2018-08-22T22:17:01.843Z,24.80
2018-08-22T22:19:32.733Z,25.30
2018-08-22T22:22:01.886Z,25.53
2018-08-22T22:24:30.598Z,26.47
2018-08-22T22:26:59.646Z,25.87
2018-08-22T22:29:30.304Z,25.83
2018-08-22T22:31:59.477Z,25.90
2018-08-22T22:34:29.365Z,27.00
2018-08-22T22:36:58.999Z,26.70
2018-08-22T22:39:37.575Z,27.13
2018-08-22T22:42:13.424Z,27.00
2018-08-22T22:44:45.776Z,27.93
2018-08-22T22:47:19.862Z,27.27
2018-08-22T22:49:49.034Z,29.07
2018-08-22T22:52:25.256Z,28.83
2018-08-22T22:54:56.132Z,28.33
2018-08-22T22:57:24.984Z,26.73
2018-08-22T22:59:54.025Z,27.73
2018-08-22T23:02:25.090Z,28.07
2018-08-22T23:04:54.333Z,29.77
2018-08-22T23:07:24.344Z,30.20
2018-08-22T23:09:55.301Z,31.43
2018-08-22T23:12:29.492Z,30.80
2018-08-22T23:14:58.371Z,30.83
2018-08-22T23:17:27.629Z,31.37
2018-08-22T23:20:09.214Z,30.87
2018-08-22T23:22:38.414Z,30.17
2018-08-22T23:25:07.277Z,30.13
2018-08-22T23:27:36.161Z,30.97
2018-08-22T23:30:05.057Z,31.03
2018-08-22T23:32:33.951Z,31.07
2018-08-22T23:35:18.123Z,31.87
2018-08-22T23:37:49.846Z,33.13
2018-08-22T23:40:18.806Z,31.73
2018-08-22T23:42:47.325Z,34.00
2018-08-22T23:45:16.093Z,34.10
2018-08-22T23:47:44.628Z,32.90
2018-08-22T23:50:13.145Z,33.67
2018-08-22T23:52:47.331Z,34.57
2018-08-22T23:55:16.502Z,32.33
2018-08-22T23:57:45.091Z,32.40
